Time;durP1;ratioP1;P1;durP2;ratioP2;P2;SDS_P1;SDS_P2;PMS_P1;PMS_P2;Temp;Humidity;BMP_temperature;BMP_pressure;BME280_temperature;BME280_humidity;BME280_pressure;Samples;Min_cycle;Max_cycle;Signal;HPM_P1;HPM_P2
2023/09/29 00:00:25;;;;;;;14.95;9.77;;;;;;;17.02;100.00;100567.25;4969645;28;20050;-75
2023/09/29 00:02:55;;;;;;;10.38;8.43;;;;;;;16.95;100.00;100563.31;4975497;28;20046;-75
2023/09/29 00:05:24;;;;;;;12.60;8.32;;;;;;;16.95;100.00;100576.69;4969425;28;20042;-75
2023/09/29 00:07:55;;;;;;;14.05;8.80;;;;;;;16.90;100.00;100573.47;4981324;28;20292;-75
2023/09/29 00:10:24;;;;;;;10.90;8.82;;;;;;;16.93;100.00;100578.59;4977987;28;20046;-75
2023/09/29 00:12:53;;;;;;;10.55;8.40;;;;;;;16.91;100.00;100580.53;4988056;28;20047;-76
2023/09/29 00:15:22;;;;;;;10.38;8.40;;;;;;;16.86;100.00;100585.34;4978050;28;20046;-76
2023/09/29 00:17:50;;;;;;;10.07;8.18;;;;;;;16.81;100.00;100583.00;4982459;28;20043;-75
2023/09/29 00:20:23;;;;;;;11.90;8.13;;;;;;;16.79;100.00;100578.72;4975063;28;20034;-77
2023/09/29 00:22:55;;;;;;;11.10;8.00;;;;;;;16.72;100.00;100570.25;4974922;28;20062;-74
2023/09/29 00:25:24;;;;;;;14.38;8.75;;;;;;;16.63;100.00;100570.91;4972012;28;20042;-75
2023/09/29 00:27:55;;;;;;;10.57;7.78;;;;;;;16.71;100.00;100578.38;4988111;28;20073;-75
2023/09/29 00:30:24;;;;;;;9.82;8.52;;;;;;;16.75;100.00;100582.56;4978961;28;20043;-76
2023/09/29 00:32:56;;;;;;;11.37;7.93;;;;;;;16.74;100.00;100567.47;4971677;28;20163;-76
2023/09/29 00:35:27;;;;;;;9.77;7.50;;;;;;;16.77;100.00;100573.47;4983513;28;20134;-75
2023/09/29 00:37:59;;;;;;;10.23;7.97;;;;;;;16.71;100.00;100579.22;5005367;28;20146;-75
2023/09/29 00:40:30;;;;;;;9.82;7.55;;;;;;;16.65;100.00;100573.47;4995637;28;20042;-76
2023/09/29 00:43:04;;;;;;;11.18;8.10;;;;;;;16.64;100.00;100563.75;4985260;28;20058;-74
2023/09/29 00:45:32;;;;;;;13.70;8.20;;;;;;;16.67;100.00;100560.84;4982845;28;20050;-75
2023/09/29 00:48:07;;;;;;;9.57;7.90;;;;;;;16.68;100.00;100554.56;4977118;28;20039;-76
2023/09/29 00:50:36;;;;;;;14.00;8.30;;;;;;;16.66;100.00;100548.44;4990852;28;20081;-76
2023/09/29 00:53:13;;;;;;;10.65;8.23;;;;;;;16.59;100.00;100541.78;4957137;28;20053;-76
2023/09/29 00:55:48;;;;;;;16.13;8.68;;;;;;;16.56;100.00;100548.19;4983463;28;20100;-75
2023/09/29 00:58:17;;;;;;;10.73;8.55;;;;;;;16.53;100.00;100542.22;4990983;28;20057;-76
2023/09/29 01:00:48;;;;;;;12.35;8.95;;;;;;;16.47;100.00;100546.16;4963607;28;20170;-75
2023/09/29 01:03:19;;;;;;;11.18;9.27;;;;;;;16.42;100.00;100565.19;4963975;28;20070;-74
2023/09/29 01:05:51;;;;;;;;;;;;;;;16.40;100.00;100555.53;4987237;28;20062;-75
2023/09/29 01:08:26;;;;;;;9.00;7.93;;;;;;;16.38;100.00;100538.75;4987414;28;19922;-74
2023/09/29 01:10:54;;;;;;;13.00;8.90;;;;;;;16.43;100.00;100533.97;4990196;28;20053;-77
2023/09/29 01:13:25;;;;;;;11.52;7.75;;;;;;;16.40;100.00;100528.81;4967191;28;20050;-75
2023/09/29 01:15:54;;;;;;;13.07;8.50;;;;;;;16.43;100.00;100540.16;4987349;28;20112;-75
2023/09/29 01:18:22;;;;;;;12.48;8.77;;;;;;;16.45;100.00;100548.94;4972876;28;20082;-77
2023/09/29 01:20:58;;;;;;;10.80;8.88;;;;;;;16.43;100.00;100553.53;4981023;28;20046;-75
2023/09/29 01:23:31;;;;;;;13.38;9.43;;;;;;;16.35;100.00;100547.88;4993829;28;20046;-76
2023/09/29 01:26:02;;;;;;;13.52;9.88;;;;;;;16.40;100.00;100561.75;5000222;28;20519;-77
2023/09/29 01:28:30;;;;;;;11.13;8.93;;;;;;;16.42;100.00;100561.66;4956181;28;20077;-77
2023/09/29 01:31:00;;;;;;;11.25;8.13;;;;;;;16.41;100.00;100550.09;4985515;28;20056;-77
2023/09/29 01:33:31;;;;;;;12.50;9.15;;;;;;;16.38;100.00;100571.69;4975417;28;20062;-76
2023/09/29 01:36:01;;;;;;;10.10;8.88;;;;;;;16.28;100.00;100543.88;4950399;28;20106;-76
2023/09/29 01:38:30;;;;;;;10.05;8.30;;;;;;;16.33;100.00;100552.44;4984460;28;20065;-76
2023/09/29 01:41:00;;;;;;;12.10;7.78;;;;;;;16.34;100.00;100532.78;4984620;28;20431;-77
2023/09/29 01:43:28;;;;;;;13.13;8.35;;;;;;;16.33;100.00;100532.88;4974857;28;20571;-77
2023/09/29 01:45:56;;;;;;;10.63;8.48;;;;;;;16.37;100.00;100526.38;4986999;28;20097;-77
2023/09/29 01:48:25;;;;;;;10.73;8.30;;;;;;;16.48;100.00;100548.72;4972771;28;20406;-75
2023/09/29 01:50:54;;;;;;;11.70;7.95;;;;;;;16.46;100.00;100545.31;4989533;28;20499;-76
2023/09/29 01:53:22;;;;;;;10.23;7.78;;;;;;;16.44;100.00;100546.38;4966000;28;20054;-78
2023/09/29 01:55:54;;;;;;;9.50;7.20;;;;;;;16.38;100.00;100536.09;4985212;28;20054;-77
2023/09/29 01:58:23;;;;;;;9.55;7.70;;;;;;;16.36;100.00;100536.22;4955236;28;20058;-77
2023/09/29 02:00:51;;;;;;;10.05;8.30;;;;;;;16.29;100.00;100539.41;4979302;28;20100;-76
2023/09/29 02:03:20;;;;;;;10.25;8.10;;;;;;;16.30;100.00;100554.47;4990698;28;20046;-77
2023/09/29 02:05:49;;;;;;;9.73;8.27;;;;;;;16.29;100.00;100544.75;4984691;28;20396;-78
2023/09/29 02:08:18;;;;;;;12.55;8.48;;;;;;;16.27;100.00;100536.81;4967258;28;20044;-77
2023/09/29 02:10:48;;;;;;;10.60;8.13;;;;;;;16.20;100.00;100529.34;4978260;28;20057;-78
2023/09/29 02:13:18;;;;;;;11.27;8.65;;;;;;;16.26;100.00;100551.16;4977026;28;20114;-76
2023/09/29 02:15:50;;;;;;;11.35;8.57;;;;;;;16.22;100.00;100554.13;4970196;28;20057;-77
2023/09/29 02:18:18;;;;;;;15.63;8.65;;;;;;;16.18;100.00;100550.81;4994691;28;20093;-78
2023/09/29 02:20:48;;;;;;;12.00;8.88;;;;;;;16.17;100.00;100549.13;4982548;28;20576;-77
2023/09/29 02:23:17;;;;;;;12.73;8.40;;;;;;;16.10;100.00;100540.63;4976787;28;20527;-77
2023/09/29 02:25:44;;;;;;;9.20;7.63;;;;;;;16.09;100.00;100540.75;4985326;28;20046;-77
2023/09/29 02:28:13;;;;;;;10.65;7.82;;;;;;;16.14;100.00;100546.63;4960251;28;20149;-76
2023/09/29 02:30:42;;;;;;;11.20;8.48;;;;;;;16.15;100.00;100537.66;4997009;28;20078;-77
2023/09/29 02:33:10;;;;;;;11.70;8.40;;;;;;;16.20;100.00;100548.06;4978850;28;20092;-78
2023/09/29 02:35:41;;;;;;;9.02;7.70;;;;;;;16.25;100.00;100556.59;4966893;28;20062;-76
2023/09/29 02:38:12;;;;;;;12.15;8.65;;;;;;;16.25;100.00;100556.59;4981132;28;20530;-78
2023/09/29 02:40:40;;;;;;;10.52;8.63;;;;;;;16.24;100.00;100561.06;4978831;28;20482;-77
2023/09/29 02:43:11;;;;;;;10.15;7.75;;;;;;;16.23;100.00;100569.19;4978854;28;20081;-77
2023/09/29 02:45:41;;;;;;;11.20;7.80;;;;;;;16.24;100.00;100568.25;4984477;28;20046;-77
2023/09/29 02:48:12;;;;;;;11.77;8.55;;;;;;;16.24;100.00;100554.88;4972183;28;20556;-77
2023/09/29 02:50:40;;;;;;;10.68;7.97;;;;;;;16.24;100.00;100557.56;4976713;28;20070;-77
2023/09/29 02:53:15;;;;;;;10.85;8.15;;;;;;;16.24;100.00;100560.22;4967399;28;20049;-77
2023/09/29 02:55:47;;;;;;;10.45;7.43;;;;;;;16.28;100.00;100565.25;4959915;28;20048;-77
2023/09/29 02:58:18;;;;;;;10.38;7.43;;;;;;;16.34;100.00;100561.31;4972635;28;20046;-77
2023/09/29 03:00:48;;;;;;;10.38;7.70;;;;;;;16.38;100.00;100566.34;4987049;28;20046;-76
2023/09/29 03:03:18;;;;;;;10.85;8.40;;;;;;;16.44;100.00;100562.41;4971718;28;20054;-77
2023/09/29 03:05:47;;;;;;;12.60;8.35;;;;;;;16.47;100.00;100543.47;4949449;28;20125;-77
2023/09/29 03:08:15;;;;;;;10.15;8.07;;;;;;;16.57;100.00;100551.72;4987524;28;20050;-77
2023/09/29 03:10:46;;;;;;;11.13;8.95;;;;;;;16.59;100.00;100539.09;4975175;28;20042;-76
2023/09/29 03:13:15;;;;;;;10.43;8.73;;;;;;;16.63;100.00;100543.31;4955860;28;20136;-77
2023/09/29 03:15:48;;;;;;;10.90;8.00;;;;;;;16.66;100.00;100545.78;4980459;28;20423;-77
2023/09/29 03:18:17;;;;;;;9.93;8.02;;;;;;;16.71;100.00;100544.47;4989339;28;20181;-77
2023/09/29 03:20:46;;;;;;;9.30;7.80;;;;;;;16.68;100.00;100534.03;4974856;28;20046;-77
2023/09/29 03:23:14;;;;;;;9.25;7.47;;;;;;;16.75;100.00;100535.28;4972194;28;20407;-77
2023/09/29 03:25:42;;;;;;;12.20;8.25;;;;;;;16.78;100.00;100544.91;4982820;28;20061;-77
2023/09/29 03:28:11;;;;;;;11.68;8.38;;;;;;;16.78;100.00;100543.09;4976388;28;20049;-77
2023/09/29 03:30:39;;;;;;;9.32;7.82;;;;;;;16.77;100.00;100536.03;4975061;28;20058;-76
2023/09/29 03:33:07;;;;;;;11.38;8.23;;;;;;;16.77;100.00;100535.19;4979714;28;20046;-77
2023/09/29 03:35:36;;;;;;;11.23;7.95;;;;;;;16.81;100.00;100542.88;4969828;28;20499;-76
2023/09/29 03:38:05;;;;;;;10.85;8.05;;;;;;;16.79;100.00;100539.47;4980614;28;20069;-77
2023/09/29 03:40:36;;;;;;;11.23;7.50;;;;;;;16.79;100.00;100541.28;4979045;28;20043;-75
2023/09/29 03:43:05;;;;;;;10.73;8.05;;;;;;;16.79;100.00;100538.59;4981786;28;20054;-76
2023/09/29 03:45:36;;;;;;;11.05;8.02;;;;;;;16.81;100.00;100537.53;4966125;28;20047;-77
2023/09/29 03:48:05;;;;;;;8.85;7.93;;;;;;;16.82;100.00;100552.63;4989018;28;20484;-76
2023/09/29 03:50:40;;;;;;;12.05;8.30;;;;;;;16.73;100.00;100537.19;4982379;28;20054;-76
2023/09/29 03:53:11;;;;;;;9.75;7.47;;;;;;;16.77;100.00;100552.06;4982083;28;20054;-76
2023/09/29 03:55:40;;;;;;;10.93;8.63;;;;;;;16.78;100.00;100551.13;4969408;28;20049;-75
2023/09/29 03:58:09;;;;;;;11.02;8.10;;;;;;;16.78;100.00;100548.44;4957590;28;20407;-76
2023/09/29 04:00:38;;;;;;;11.48;8.27;;;;;;;16.79;100.00;100551.97;4990160;28;20042;-75
2023/09/29 04:03:07;;;;;;;10.45;7.85;;;;;;;16.78;100.00;100551.13;4975163;28;20088;-75
2023/09/29 04:05:38;;;;;;;13.20;8.43;;;;;;;16.65;100.00;100534.22;4990079;28;20112;-77
2023/09/29 04:08:06;;;;;;;11.43;8.25;;;;;;;16.75;100.00;100555.81;4981527;28;20093;-77
2023/09/29 04:10:36;;;;;;;10.40;7.97;;;;;;;16.69;100.00;100554.41;4963793;28;20046;-77
2023/09/29 04:13:05;;;;;;;11.93;8.15;;;;;;;16.69;100.00;100562.44;4976794;28;20605;-77
2023/09/29 04:15:34;;;;;;;9.05;7.70;;;;;;;16.67;100.00;100560.84;4950975;28;20062;-75
2023/09/29 04:18:03;;;;;;;11.15;7.80;;;;;;;16.65;100.00;100562.78;4976071;28;20038;-77
2023/09/29 04:20:32;;;;;;;11.82;8.63;;;;;;;16.64;100.00;100559.25;4994494;28;20052;-75
2023/09/29 04:23:04;;;;;;;11.40;8.27;;;;;;;16.65;100.00;100560.09;4992517;28;20097;-76
2023/09/29 04:25:35;;;;;;;10.95;7.90;;;;;;;16.63;100.00;100546.84;4984955;28;20270;-76
2023/09/29 04:28:04;;;;;;;13.23;8.27;;;;;;;16.69;100.00;100549.06;4974066;28;20054;-77
2023/09/29 04:30:32;;;;;;;12.23;7.97;;;;;;;16.67;100.00;100552.84;4991987;28;20049;-76
2023/09/29 04:33:00;;;;;;;9.85;7.13;;;;;;;16.59;100.00;100550.66;4975050;28;20108;-76
2023/09/29 04:35:38;;;;;;;11.38;7.97;;;;;;;16.56;100.00;100548.19;4952038;28;20510;-76
2023/09/29 04:38:11;;;;;;;10.77;7.57;;;;;;;16.56;100.00;100553.53;4989776;28;20046;-76
2023/09/29 04:40:40;;;;;;;10.60;8.15;;;;;;;16.49;100.00;100530.88;4974365;28;20105;-77
2023/09/29 04:43:09;;;;;;;9.45;7.63;;;;;;;16.60;100.00;100563.06;4961446;28;20046;-77
2023/09/29 04:45:39;;;;;;;12.65;7.55;;;;;;;16.55;100.00;100561.66;4965860;28;20047;-76
2023/09/29 04:48:08;;;;;;;9.05;7.90;;;;;;;16.55;100.00;100569.66;4984311;28;20066;-75
2023/09/29 04:50:36;;;;;;;10.30;7.78;;;;;;;16.49;100.00;100563.81;4986871;28;20046;-75
2023/09/29 04:53:06;;;;;;;10.07;7.63;;;;;;;16.56;100.00;100563.38;4985664;28;20199;-76
2023/09/29 04:55:40;;;;;;;9.13;7.47;;;;;;;16.47;100.00;100541.66;4978076;28;20053;-76
2023/09/29 04:58:09;;;;;;;9.50;7.50;;;;;;;16.61;100.00;100558.56;5001205;28;20569;-75
2023/09/29 05:00:38;;;;;;;11.13;7.80;;;;;;;16.56;100.00;100547.31;4991671;28;20057;-75
2023/09/29 05:03:06;;;;;;;10.45;7.97;;;;;;;16.57;100.00;100562.41;4951740;28;20057;-76
2023/09/29 05:05:34;;;;;;;9.13;7.07;;;;;;;16.54;100.00;100566.13;4971744;28;20645;-76
2023/09/29 05:08:04;;;;;;;11.52;7.57;;;;;;;16.48;100.00;100556.75;4988994;28;20368;-76
2023/09/29 05:10:37;;;;;;;11.25;8.32;;;;;;;16.45;100.00;100548.94;4995858;28;20096;-76
2023/09/29 05:13:08;;;;;;;9.93;7.93;;;;;;;16.49;100.00;100558.47;4964562;28;20404;-76
2023/09/29 05:15:38;;;;;;;12.27;8.32;;;;;;;16.53;100.00;100564.44;4969473;28;20109;-76
2023/09/29 05:18:06;;;;;;;10.02;8.07;;;;;;;16.54;100.00;100566.13;4974210;28;20048;-77
2023/09/29 05:20:37;;;;;;;9.95;7.95;;;;;;;16.56;100.00;100563.38;5006901;28;20061;-77
2023/09/29 05:23:06;;;;;;;;;;;;;;;16.57;100.00;100559.72;4973006;28;20053;-77
2023/09/29 05:25:35;;;;;;;10.55;8.05;;;;;;;16.58;100.00;100572.13;4983017;28;19989;-76
2023/09/29 05:28:03;;;;;;;9.70;8.30;;;;;;;16.57;100.00;100568.59;4974302;28;20059;-76
2023/09/29 05:30:33;;;;;;;11.90;8.30;;;;;;;16.57;100.00;100573.09;4991298;28;20344;-77
2023/09/29 05:33:03;;;;;;;15.18;8.35;;;;;;;16.58;100.00;100574.81;4989444;28;20052;-76
2023/09/29 05:35:32;;;;;;;15.73;9.02;;;;;;;16.47;100.00;100559.53;4955410;28;20140;-77
2023/09/29 05:38:01;;;;;;;10.63;8.20;;;;;;;16.52;100.00;100569.91;4975734;28;20089;-77
2023/09/29 05:40:29;;;;;;;13.38;8.13;;;;;;;16.60;100.00;100572.91;4979727;28;20050;-75
2023/09/29 05:42:57;;;;;;;11.65;8.65;;;;;;;16.66;100.00;100576.03;4990990;28;20077;-76
2023/09/29 05:45:25;;;;;;;8.75;7.70;;;;;;;16.65;100.00;100579.69;4967512;28;20051;-77
2023/09/29 05:47:56;;;;;;;12.18;8.30;;;;;;;16.69;100.00;100586.50;4988791;28;20055;-77
2023/09/29 05:50:24;;;;;;;;;;;;;;;16.70;100.00;100588.22;4975426;28;20042;-77
2023/09/29 05:52:57;;;;;;;11.90;7.95;;;;;;;16.72;100.00;100582.75;4983476;28;19936;-76
2023/09/29 05:55:38;;;;;;;13.52;8.93;;;;;;;16.72;100.00;100593.47;4971452;28;20058;-77
2023/09/29 05:58:07;;;;;;;11.10;9.05;;;;;;;16.75;100.00;100586.09;4979656;28;20062;-77
2023/09/29 06:00:36;;;;;;;12.07;8.48;;;;;;;16.80;100.00;100583.09;4987403;28;20211;-76
2023/09/29 06:03:08;;;;;;;10.38;8.23;;;;;;;16.89;100.00;100577.09;4989976;28;20062;-76
2023/09/29 06:05:39;;;;;;;11.02;8.15;;;;;;;16.92;100.00;100566.19;4990241;28;20061;-74
2023/09/29 06:08:12;;;;;;;10.68;8.10;;;;;;;16.93;100.00;100570.56;4964222;28;20077;-75
2023/09/29 06:10:43;;;;;;;10.32;8.13;;;;;;;17.01;100.00;100570.03;4988523;28;20042;-76
2023/09/29 06:13:21;;;;;;;12.77;8.85;;;;;;;17.04;100.00;100575.16;5003961;28;20038;-78
2023/09/29 06:15:57;;;;;;;20.92;10.60;;;;;;;17.07;100.00;100578.47;4983357;28;20050;-76
2023/09/29 06:18:27;;;;;;;10.05;8.02;;;;;;;17.10;100.00;100574.75;4995911;28;20054;-76
2023/09/29 06:20:57;;;;;;;10.80;7.90;;;;;;;17.18;100.00;100569.69;4967279;28;20057;-77
2023/09/29 06:23:26;;;;;;;11.88;8.55;;;;;;;17.28;100.00;100572.56;4999738;28;20080;-76
2023/09/29 06:25:57;;;;;;;13.80;9.02;;;;;;;17.33;100.00;100555.19;4986081;28;20046;-77
2023/09/29 06:28:28;;;;;;;10.10;8.18;;;;;;;17.32;100.00;100549.94;4984678;28;20122;-74
2023/09/29 06:30:58;;;;;;;11.63;8.50;;;;;;;17.36;100.00;100567.50;4975204;28;20057;-78
2023/09/29 06:33:28;;;;;;;11.88;8.35;;;;;;;17.43;100.00;100591.06;4990532;28;20045;-76
2023/09/29 06:35:59;;;;;;;12.23;8.70;;;;;;;17.46;100.00;100595.34;4985107;28;20047;-76
2023/09/29 06:38:28;;;;;;;15.85;10.27;;;;;;;17.50;100.00;100591.44;4980851;28;20152;-77
2023/09/29 06:40:57;;;;;;;17.55;10.63;;;;;;;17.52;100.00;100595.72;4991625;28;20065;-76
2023/09/29 06:43:27;;;;;;;18.75;11.07;;;;;;;17.62;100.00;100603.13;4979181;28;20050;-76
2023/09/29 06:45:55;;;;;;;20.77;11.68;;;;;;;17.68;100.00;100614.25;4988842;28;20073;-78
2023/09/29 06:48:33;;;;;;;20.17;11.07;;;;;;;17.58;100.00;100585.56;4953025;28;20047;-78
2023/09/29 06:51:02;;;;;;;18.98;10.88;;;;;;;17.80;100.00;100607.97;4994939;28;20042;-77
2023/09/29 06:53:34;;;;;;;19.08;10.35;;;;;;;17.82;100.00;100603.38;4976885;28;20119;-76
2023/09/29 06:56:02;;;;;;;22.02;11.15;;;;;;;17.85;100.00;100603.16;4963808;28;20070;-74
2023/09/29 06:58:32;;;;;;;21.67;11.10;;;;;;;17.88;100.00;100594.91;4952716;28;20067;-77
2023/09/29 07:01:03;;;;;;;19.13;11.32;;;;;;;17.95;100.00;100597.97;4954765;28;20088;-75
2023/09/29 07:03:55;;;;;;;18.75;11.57;;;;;;;18.03;100.00;100592.03;4953422;28;20050;-76
2023/09/29 07:06:26;;;;;;;17.05;10.20;;;;;;;18.11;100.00;100585.13;4950853;28;20078;-76
2023/09/29 07:08:55;;;;;;;13.95;9.70;;;;;;;18.18;100.00;100570.31;4946560;28;20118;-75
2023/09/29 07:11:25;;;;;;;16.92;11.05;;;;;;;18.31;100.00;100575.59;4947520;28;20287;-78
2023/09/29 07:13:53;;;;;;;14.10;10.63;;;;;;;18.39;100.00;100567.81;4955468;28;20113;-76
2023/09/29 07:16:21;;;;;;;12.68;10.10;;;;;;;18.45;100.00;100561.97;4947736;28;20059;-77
2023/09/29 07:18:55;;;;;;;15.30;11.40;;;;;;;18.55;100.00;100567.50;4956954;28;20051;-79
2023/09/29 07:21:24;;;;;;;15.70;10.57;;;;;;;18.63;100.00;100559.72;4949618;28;20051;-75
2023/09/29 07:23:56;;;;;;;19.27;11.50;;;;;;;18.70;100.00;100541.34;4957423;28;20043;-78
2023/09/29 07:26:28;;;;;;;15.52;10.18;;;;;;;18.93;100.00;100560.00;4968531;28;20102;-77
2023/09/29 07:29:03;;;;;;;16.85;10.85;;;;;;;19.08;100.00;100541.81;4941065;29;20047;-76
2023/09/29 07:31:38;;;;;;;14.63;9.55;;;;;;;19.20;100.00;100545.38;4954047;28;20147;-79
2023/09/29 07:34:11;;;;;;;18.00;10.00;;;;;;;19.38;100.00;100559.13;4935156;28;20129;-78
2023/09/29 07:36:44;;;;;;;12.82;9.48;;;;;;;19.40;100.00;100558.03;4948441;28;20060;-77
2023/09/29 07:39:14;;;;;;;15.45;10.52;;;;;;;19.24;100.00;100550.34;4954623;28;20388;-77
2023/09/29 07:41:42;;;;;;;13.85;9.35;;;;;;;19.18;100.00;100548.19;4969601;28;20063;-77
2023/09/29 07:44:10;;;;;;;15.63;9.57;;;;;;;19.19;100.00;100541.84;4972087;28;20043;-78
2023/09/29 07:46:52;;;;;;;12.75;9.13;;;;;;;19.39;100.00;100558.16;4963728;28;20147;-77
2023/09/29 07:49:24;;;;;;;15.20;8.40;;;;;;;19.74;100.00;100556.16;4950603;28;20051;-76
2023/09/29 07:51:58;;;;;;;11.95;8.15;;;;;;;19.99;100.00;100546.06;4951317;28;20036;-77
2023/09/29 07:54:28;;;;;;;15.52;9.10;;;;;;;20.09;100.00;100553.22;4949854;28;20059;-76
2023/09/29 07:57:03;;;;;;;12.07;8.45;;;;;;;19.95;100.00;100551.69;4998443;28;20046;-75
2023/09/29 07:59:32;;;;;;;11.40;8.77;;;;;;;19.72;100.00;100555.44;4981270;28;20104;-76
2023/09/29 08:02:02;;;;;;;14.38;9.32;;;;;;;19.57;100.00;100562.91;4981672;28;20051;-77
2023/09/29 08:04:33;;;;;;;12.05;7.68;;;;;;;19.40;100.00;100563.41;4970732;28;20066;-77
2023/09/29 08:07:02;;;;;;;;;;;;;;;19.47;100.00;100566.44;4968799;28;20137;-76
2023/09/29 08:09:33;;;;;;;14.10;9.30;;;;;;;19.41;100.00;100565.09;4985476;28;19929;-77
2023/09/29 08:12:04;;;;;;;11.00;8.25;;;;;;;19.38;100.00;100580.59;4969798;28;20107;-76
2023/09/29 08:14:35;;;;;;;14.43;7.80;;;;;;;19.37;100.00;100569.00;4987982;28;20068;-77
2023/09/29 08:17:05;;;;;;;12.18;8.07;;;;;;;19.44;100.00;100572.06;4955298;28;20276;-76
2023/09/29 08:19:43;;;;;;;10.50;7.93;;;;;;;19.45;100.00;100587.22;4998497;28;20117;-76
2023/09/29 08:22:16;;;;;;;12.35;8.85;;;;;;;19.53;100.00;100587.47;4976235;28;20133;-77
2023/09/29 08:25:03;;;;;;;11.80;8.27;;;;;;;19.62;100.00;100578.66;4987759;28;20043;-76
2023/09/29 08:27:30;;;;;;;13.23;8.57;;;;;;;19.68;100.00;100582.66;4965447;28;20527;-76
2023/09/29 08:29:58;;;;;;;10.55;7.78;;;;;;;19.89;100.00;100588.97;4998632;28;20057;-77
2023/09/29 08:32:32;;;;;;;11.23;7.63;;;;;;;20.21;100.00;100597.91;4977681;28;20062;-75
2023/09/29 08:35:02;;;;;;;11.02;7.75;;;;;;;20.43;100.00;100588.91;4974473;28;20047;-76
2023/09/29 08:37:34;;;;;;;14.55;8.18;;;;;;;20.51;100.00;100567.56;4970642;28;20145;-76
2023/09/29 08:40:03;;;;;;;13.30;7.20;;;;;;;20.82;100.00;100583.78;4995192;28;20049;-76
2023/09/29 08:42:36;;;;;;;;;;;;;;;21.01;100.00;100578.50;4978748;28;20504;-76
2023/09/29 08:45:09;;;;;;;14.35;8.18;;;;;;;21.22;100.00;100565.88;4984466;28;19922;-76
2023/09/29 08:47:40;;;;;;;8.93;7.70;;;;;;;21.21;100.00;100564.16;4969692;28;20519;-76
2023/09/29 08:50:16;;;;;;;12.10;8.30;;;;;;;20.99;100.00;100562.47;4972927;28;20034;-75
2023/09/29 08:52:49;;;;;;;13.68;8.13;;;;;;;20.78;100.00;100556.25;4970312;28;20062;-76
2023/09/29 08:55:21;;;;;;;15.95;8.52;;;;;;;20.80;100.00;100569.59;4991681;28;20050;-75
2023/09/29 08:57:49;;;;;;;;;;;;;;;20.97;100.00;100569.81;4982012;28;20057;-76
2023/09/29 09:00:20;;;;;;;11.60;8.20;;;;;;;21.10;100.00;100560.66;4972560;28;19922;-76
2023/09/29 09:02:51;;;;;;;14.05;7.47;;;;;;;21.16;100.00;100544.84;5003865;28;20046;-77
2023/09/29 09:05:26;;;;;;;11.32;7.55;;;;;;;21.31;100.00;100543.50;4960996;28;20137;-76
2023/09/29 09:07:58;;;;;;;11.55;7.10;;;;;;;21.52;100.00;100558.72;4999018;28;20681;-77
2023/09/29 09:10:34;;;;;;;12.93;7.63;;;;;;;21.65;100.00;100551.25;4998588;28;20070;-77
2023/09/29 09:13:06;;;;;;;11.10;6.82;;;;;;;21.77;100.00;100560.91;4989407;28;20065;-77
2023/09/29 09:15:36;;;;;;;9.07;6.65;;;;;;;22.00;100.00;100566.94;4974852;28;20423;-75
2023/09/29 09:18:04;;;;;;;10.77;5.78;;;;;;;22.23;100.00;100554.00;4981137;28;20088;-76
2023/09/29 09:20:36;;;;;;;10.98;6.30;;;;;;;22.55;100.00;100564.47;4981391;28;20137;-76
2023/09/29 09:23:06;;;;;;;9.02;6.18;;;;;;;22.69;100.00;100566.72;4972170;28;20042;-77
2023/09/29 09:25:37;;;;;;;9.43;5.85;;;;;;;22.66;100.00;100550.84;4991056;28;20046;-76
2023/09/29 09:28:15;;;;;;;10.02;5.93;;;;;;;22.71;100.00;100562.03;4980004;28;20046;-77
2023/09/29 09:30:44;;;;;;;9.55;5.50;;;;;;;22.68;100.00;100556.91;4963933;28;20047;-76
2023/09/29 09:33:31;;;;;;;10.40;5.90;;;;;;;22.59;100.00;100528.09;4983842;28;20038;-76
2023/09/29 09:36:10;;;;;;;10.52;6.57;;;;;;;22.83;100.00;100541.97;4995125;28;20085;-75
2023/09/29 09:38:39;;;;;;;10.20;5.80;;;;;;;23.18;100.00;100551.22;4986720;28;20046;-76
2023/09/29 09:41:09;;;;;;;9.98;6.15;;;;;;;23.36;100.00;100546.75;5000107;28;20046;-76
2023/09/29 09:43:38;;;;;;;;;;;;;;;23.37;100.00;100546.59;4988037;28;20035;-77
2023/09/29 09:46:12;;;;;;;7.47;5.78;;;;;;;23.29;100.00;100541.09;4986448;28;19933;-75
2023/09/29 09:48:50;;;;;;;14.25;6.53;;;;;;;23.35;100.00;100539.63;4991725;28;20057;-76
2023/09/29 09:51:35;;;;;;;7.05;5.40;;;;;;;23.38;100.00;100523.97;4977420;28;20144;-75
2023/09/29 09:54:08;;;;;;;9.77;5.30;;;;;;;23.75;97.25;100540.13;4977653;28;20061;-75
2023/09/29 09:56:48;;;;;;;9.38;6.15;;;;;;;23.78;96.93;100542.50;4992149;28;20072;-75
2023/09/29 09:59:17;;;;;;;11.85;7.47;;;;;;;23.64;97.83;100531.38;4964861;28;20050;-76
2023/09/29 10:01:46;;;;;;;12.75;8.15;;;;;;;23.77;98.02;100534.53;5004357;28;20042;-76
2023/09/29 10:04:16;;;;;;;9.88;6.47;;;;;;;23.94;95.88;100530.16;4987687;28;20054;-74
2023/09/29 10:06:48;;;;;;;14.23;6.75;;;;;;;24.22;94.62;100526.38;4979306;28;20057;-76
2023/09/29 10:09:16;;;;;;;16.50;8.20;;;;;;;24.28;93.19;100530.31;4969160;28;20053;-76
2023/09/29 10:11:47;;;;;;;14.07;6.15;;;;;;;24.29;93.67;100532.03;4966598;28;20137;-75
2023/09/29 10:14:15;;;;;;;12.15;6.38;;;;;;;24.26;94.43;100522.34;4997768;28;20054;-76
2023/09/29 10:16:44;;;;;;;13.35;6.75;;;;;;;24.36;93.20;100533.09;4963629;28;20054;-76
2023/09/29 10:19:16;;;;;;;10.00;6.28;;;;;;;24.45;93.11;100529.44;4989220;28;20066;-76
2023/09/29 10:21:49;;;;;;;11.40;6.20;;;;;;;24.66;92.77;100521.81;4979429;28;20046;-78
2023/09/29 10:24:26;;;;;;;9.35;6.30;;;;;;;24.81;91.37;100522.91;4988363;28;20129;-77
2023/09/29 10:27:11;;;;;;;10.80;5.60;;;;;;;24.52;91.85;100518.84;4957117;28;20129;-76
2023/09/29 10:29:41;;;;;;;7.60;5.45;;;;;;;24.57;93.82;100525.47;4979431;28;20039;-76
2023/09/29 10:32:13;;;;;;;;;;;;;;;24.65;91.04;100520.13;4961345;28;20185;-77
2023/09/29 10:34:45;;;;;;;8.10;5.10;;;;;;;24.63;91.42;100499.63;4991197;28;19972;-77
2023/09/29 10:37:15;;;;;;;7.03;4.53;;;;;;;24.68;nan;100518.94;4969997;28;20038;-78
2023/09/29 10:39:46;;;;;;;5.90;4.35;;;;;;;24.69;88.99;100516.09;4969695;28;20055;-78
2023/09/29 10:42:14;;;;;;;9.23;5.32;;;;;;;24.81;87.92;100532.91;4991139;28;20046;-77
2023/09/29 10:44:45;;;;;;;7.95;5.25;;;;;;;24.87;88.32;100526.81;4973672;28;20061;-78
2023/09/29 10:47:14;;;;;;;9.30;5.00;;;;;;;24.92;85.95;100532.63;5012906;28;20042;-76
2023/09/29 10:49:47;;;;;;;8.00;4.78;;;;;;;24.93;86.78;100534.31;4985660;28;20042;-74
2023/09/29 10:52:22;;;;;;;7.93;5.47;;;;;;;24.83;86.90;100539.88;4992945;28;20104;-80
2023/09/29 10:54:56;;;;;;;8.55;5.28;;;;;;;24.50;88.41;100486.50;4961752;28;20050;-78
2023/09/29 10:57:28;;;;;;;10.70;5.53;;;;;;;24.75;87.21;100507.31;4978527;28;20415;-80
2023/09/29 11:00:00;;;;;;;8.00;5.20;;;;;;;24.92;87.01;100523.66;4973565;28;20499;-78
2023/09/29 11:02:33;;;;;;;7.07;4.97;;;;;;;25.00;86.80;100518.31;4974917;28;20081;-76
2023/09/29 11:05:07;;;;;;;10.35;5.30;;;;;;;25.08;87.91;100515.63;4973741;28;20126;-74
2023/09/29 11:07:47;;;;;;;7.15;5.18;;;;;;;25.18;87.64;100500.94;4990706;28;20047;-75
2023/09/29 11:10:17;;;;;;;6.15;4.50;;;;;;;25.18;86.47;100516.38;4983711;28;20074;-76
2023/09/29 11:12:47;;;;;;;5.93;5.20;;;;;;;25.17;86.02;100514.69;4971406;28;20046;-74
2023/09/29 11:15:17;;;;;;;8.98;5.82;;;;;;;25.06;86.40;100491.41;4977678;28;20039;-74
2023/09/29 11:17:48;;;;;;;7.85;5.38;;;;;;;25.25;86.24;100492.16;5003458;28;20038;-75
2023/09/29 11:20:25;;;;;;;6.82;4.75;;;;;;;25.32;85.07;100502.19;4970254;28;20051;-75
2023/09/29 11:23:07;;;;;;;9.45;5.07;;;;;;;25.36;86.70;100494.56;4984804;28;20130;-76
2023/09/29 11:25:47;;;;;;;10.60;4.70;;;;;;;25.31;87.84;100494.22;4997985;28;20069;-76
2023/09/29 11:28:17;;;;;;;9.05;5.43;;;;;;;25.42;87.99;100489.34;4977778;28;20062;-75
2023/09/29 11:30:45;;;;;;;9.32;4.97;;;;;;;25.53;85.37;100485.44;4990574;28;20077;-75